createdAt,value
2022-08-17T00:01:38.502Z,24.20
2022-08-17T00:04:19.109Z,24.10
2022-08-17T00:06:49.033Z,24.10
2022-08-17T00:09:18.987Z,24.10
2022-08-17T00:12:35.485Z,24.00
2022-08-17T00:14:36.065Z,24.00
2022-08-17T00:17:04.791Z,24.00
2022-08-17T00:19:33.066Z,24.00
2022-08-17T00:22:33.812Z,23.90
2022-08-17T00:24:50.281Z,23.90
2022-08-17T00:27:17.928Z,23.90
2022-08-17T00:29:46.020Z,23.80
2022-08-17T00:33:23.257Z,23.80
2022-08-17T00:35:04.986Z,23.80
2022-08-17T00:37:31.831Z,23.80
2022-08-17T00:39:58.738Z,23.70
2022-08-17T00:42:30.829Z,23.70
2022-08-17T00:44:58.771Z,23.60
2022-08-17T00:47:25.806Z,23.60
2022-08-17T00:49:52.920Z,23.50
2022-08-17T00:52:23.034Z,23.60
2022-08-17T00:54:52.350Z,23.60
2022-08-17T00:57:23.789Z,23.50
2022-08-17T01:00:01.570Z,23.50
2022-08-17T01:02:43.077Z,23.50
2022-08-17T01:05:14.997Z,23.50
2022-08-17T01:07:43.367Z,23.40
2022-08-17T01:10:57.110Z,23.40
2022-08-17T01:13:02.577Z,23.50
2022-08-17T01:15:32.176Z,23.40
2022-08-17T01:18:00.210Z,23.40
2022-08-17T01:20:27.153Z,23.40
2022-08-17T01:22:54.336Z,23.40
2022-08-17T01:25:21.584Z,23.30
2022-08-17T01:27:48.888Z,23.30
2022-08-17T01:30:57.284Z,23.20
2022-08-17T01:33:04.357Z,23.10
2022-08-17T01:35:31.747Z,23.00
2022-08-17T01:37:58.757Z,23.00
2022-08-17T01:40:31.215Z,22.90
2022-08-17T01:43:11.190Z,23.00
2022-08-17T01:45:47.690Z,23.00
2022-08-17T01:48:15.073Z,23.00
2022-08-17T01:50:44.580Z,23.00
2022-08-17T01:53:23.919Z,22.90
2022-08-17T01:55:53.518Z,22.90
2022-08-17T01:58:20.934Z,22.90
2022-08-17T02:01:00.814Z,22.80
2022-08-17T02:03:29.341Z,22.80
2022-08-17T02:05:56.788Z,22.80
2022-08-17T02:08:37.274Z,22.70
2022-08-17T02:11:14.657Z,22.70
2022-08-17T02:13:42.336Z,22.70
2022-08-17T02:16:09.240Z,22.60
2022-08-17T02:18:36.270Z,22.70
2022-08-17T02:21:03.628Z,22.70
2022-08-17T02:23:32.984Z,22.60
2022-08-17T02:26:00.690Z,22.60
2022-08-17T02:28:28.591Z,22.60
2022-08-17T02:31:01.256Z,22.60
2022-08-17T02:33:41.667Z,22.60
2022-08-17T02:36:12.406Z,22.50
2022-08-17T02:38:40.214Z,22.50
2022-08-17T02:41:07.373Z,22.60
2022-08-17T02:43:34.222Z,22.50
2022-08-17T02:46:01.116Z,22.50
2022-08-17T02:48:31.584Z,22.50
2022-08-17T02:51:00.318Z,22.50
2022-08-17T02:53:27.587Z,22.50
2022-08-17T02:56:02.696Z,22.40
2022-08-17T02:58:35.722Z,22.40
2022-08-17T03:01:05.883Z,22.40
2022-08-17T03:03:33.165Z,22.40
2022-08-17T03:06:00.325Z,22.40
2022-08-17T03:08:27.360Z,22.40
2022-08-17T03:10:54.151Z,22.40
2022-08-17T03:13:21.164Z,22.30
2022-08-17T03:15:48.785Z,22.30
2022-08-17T03:18:24.497Z,22.30
2022-08-17T03:20:58.547Z,22.30
2022-08-17T03:23:26.348Z,22.30
2022-08-17T03:25:54.954Z,22.20
2022-08-17T03:28:23.441Z,22.30
2022-08-17T03:30:51.312Z,22.20
2022-08-17T03:33:19.226Z,22.20
2022-08-17T03:35:46.661Z,22.20
2022-08-17T03:38:15.229Z,22.20
2022-08-17T03:40:58.108Z,22.20
2022-08-17T03:43:30.952Z,22.20
2022-08-17T03:46:26.971Z,22.20
2022-08-17T03:49:14.552Z,22.10
2022-08-17T03:52:00.156Z,22.20
2022-08-17T03:54:45.715Z,22.10
2022-08-17T03:57:13.419Z,22.10
2022-08-17T03:59:41.060Z,22.10
2022-08-17T04:02:12.082Z,22.00
2022-08-17T04:04:39.810Z,22.10
2022-08-17T04:07:07.467Z,22.10
2022-08-17T04:09:34.514Z,22.10
2022-08-17T04:12:04.808Z,22.10
2022-08-17T04:14:53.001Z,22.10
2022-08-17T04:17:23.487Z,22.00
2022-08-17T04:19:50.500Z,21.90
2022-08-17T04:22:32.089Z,21.80
2022-08-17T04:25:08.882Z,21.80
2022-08-17T04:27:36.231Z,21.80
2022-08-17T04:30:06.996Z,21.90
2022-08-17T04:33:06.259Z,21.90
2022-08-17T04:36:14.149Z,21.80
2022-08-17T04:38:43.702Z,21.80
2022-08-17T04:41:31.241Z,21.80
2022-08-17T04:43:58.590Z,21.80
2022-08-17T04:46:33.854Z,21.80
2022-08-17T04:49:04.637Z,21.70
2022-08-17T04:51:33.141Z,21.80
2022-08-17T04:54:03.427Z,21.80
2022-08-17T04:56:31.237Z,21.80
2022-08-17T04:59:06.760Z,21.80
2022-08-17T05:01:35.474Z,21.70
2022-08-17T05:04:32.866Z,21.60
2022-08-17T05:06:54.602Z,21.60
2022-08-17T05:09:21.611Z,21.70
2022-08-17T05:11:48.892Z,21.60
2022-08-17T05:14:16.033Z,21.50
2022-08-17T05:16:42.920Z,21.50
2022-08-17T05:19:09.758Z,21.50
2022-08-17T05:21:36.579Z,21.50
2022-08-17T05:24:06.064Z,21.60
2022-08-17T05:26:50.846Z,21.60
2022-08-17T05:29:18.884Z,21.60
2022-08-17T05:31:45.819Z,21.60
2022-08-17T05:34:12.685Z,21.60
2022-08-17T05:36:44.016Z,21.60
2022-08-17T05:39:16.584Z,21.60
2022-08-17T05:41:46.732Z,21.50
2022-08-17T05:44:17.310Z,21.50
2022-08-17T05:46:49.197Z,21.50
2022-08-17T05:49:19.327Z,21.50
2022-08-17T05:52:07.175Z,21.40
2022-08-17T05:54:54.690Z,21.40
2022-08-17T05:57:42.448Z,21.40
2022-08-17T06:00:26.367Z,21.50
2022-08-17T06:03:19.857Z,21.50
2022-08-17T06:06:18.679Z,21.50
2022-08-17T06:08:54.112Z,21.50
2022-08-17T06:11:41.494Z,21.40
2022-08-17T06:14:23.690Z,21.40
2022-08-17T06:16:56.116Z,21.40
2022-08-17T06:19:31.757Z,21.40
2022-08-17T06:21:59.477Z,21.50
2022-08-17T06:24:47.184Z,21.50
2022-08-17T06:27:25.841Z,21.50
2022-08-17T06:30:09.834Z,21.50
2022-08-17T06:32:39.087Z,21.50
2022-08-17T06:35:07.559Z,21.50
2022-08-17T06:37:48.882Z,21.50
2022-08-17T06:40:48.138Z,21.50
2022-08-17T06:43:27.825Z,21.50
2022-08-17T06:46:04.121Z,21.50
2022-08-17T06:49:02.867Z,21.50
2022-08-17T06:51:39.873Z,21.50
2022-08-17T06:54:27.953Z,21.50
2022-08-17T06:57:18.410Z,21.40
2022-08-17T06:59:54.656Z,21.50
2022-08-17T07:03:02.305Z,21.50
2022-08-17T07:05:37.296Z,21.50
2022-08-17T07:08:20.386Z,21.50
2022-08-17T07:10:51.174Z,21.50
2022-08-17T07:14:05.752Z,21.50
2022-08-17T07:16:38.416Z,21.50
2022-08-17T07:19:07.591Z,21.40
2022-08-17T07:21:49.161Z,21.50
2022-08-17T07:24:57.288Z,21.50
2022-08-17T07:27:52.942Z,21.50
2022-08-17T07:30:29.516Z,21.50
2022-08-17T07:32:59.150Z,21.50
2022-08-17T07:35:37.705Z,21.50
2022-08-17T07:38:24.351Z,21.50
2022-08-17T07:41:08.246Z,21.50
2022-08-17T07:43:46.755Z,21.50
2022-08-17T07:46:45.046Z,21.60
2022-08-17T07:49:14.937Z,21.60
2022-08-17T07:51:45.720Z,21.60
2022-08-17T07:54:15.669Z,21.60
2022-08-17T07:56:47.513Z,21.60
2022-08-17T07:59:20.456Z,21.60
2022-08-17T08:02:05.408Z,21.60
2022-08-17T08:04:59.836Z,21.70
2022-08-17T08:08:22.653Z,21.70
2022-08-17T08:11:00.094Z,21.70
2022-08-17T08:13:30.376Z,21.70
2022-08-17T08:16:13.346Z,21.70
2022-08-17T08:18:55.813Z,21.70
2022-08-17T08:21:59.011Z,21.70
2022-08-17T08:24:31.609Z,21.70
2022-08-17T08:27:29.223Z,21.70
2022-08-17T08:30:10.497Z,21.80
2022-08-17T08:33:04.571Z,21.70
2022-08-17T08:37:14.188Z,21.80
2022-08-17T08:39:13.622Z,21.80
2022-08-17T08:41:51.664Z,21.80
2022-08-17T08:45:00.085Z,21.80
2022-08-17T08:47:56.247Z,21.80
2022-08-17T08:50:54.644Z,21.80
2022-08-17T08:53:27.587Z,21.80
2022-08-17T08:56:09.378Z,21.90
2022-08-17T08:58:50.876Z,21.90
2022-08-17T09:01:34.837Z,21.90
2022-08-17T09:04:27.776Z,22.00
2022-08-17T09:10:30.253Z,22.00
2022-08-17T09:13:30.377Z,22.00
2022-08-17T09:16:07.226Z,22.00
2022-08-17T09:19:01.747Z,22.00
2022-08-17T09:21:47.971Z,22.10
2022-08-17T09:24:31.310Z,22.10
2022-08-17T09:27:00.545Z,22.10
2022-08-17T09:29:30.591Z,22.10
2022-08-17T09:32:01.699Z,22.20
2022-08-17T09:34:48.426Z,22.20
2022-08-17T09:37:21.736Z,22.20
2022-08-17T09:39:48.528Z,22.20
2022-08-17T09:42:24.059Z,22.30
2022-08-17T09:45:04.128Z,22.30
2022-08-17T09:47:36.884Z,22.30
2022-08-17T09:50:16.044Z,22.40
2022-08-17T09:52:43.090Z,22.40
2022-08-17T09:55:10.109Z,22.40
2022-08-17T09:58:14.447Z,22.40
2022-08-17T10:00:51.362Z,22.40
2022-08-17T10:03:28.475Z,22.50
2022-08-17T10:06:21.802Z,22.50
2022-08-17T10:08:57.814Z,22.50
2022-08-17T10:12:03.744Z,22.50
2022-08-17T10:14:44.020Z,22.50
2022-08-17T10:17:18.189Z,22.40
2022-08-17T10:19:54.925Z,22.50
2022-08-17T10:23:13.816Z,22.40
2022-08-17T10:26:13.034Z,22.50
2022-08-17T10:29:17.148Z,22.40
2022-08-17T10:31:51.014Z,22.40
2022-08-17T10:34:40.974Z,22.40
2022-08-17T10:37:31.135Z,22.40
2022-08-17T10:40:19.250Z,22.50
2022-08-17T10:42:59.089Z,22.40
2022-08-17T10:45:31.275Z,22.40
2022-08-17T10:48:07.624Z,22.30
2022-08-17T10:51:00.875Z,22.30
2022-08-17T10:53:40.691Z,22.30
2022-08-17T10:56:13.914Z,22.30
2022-08-17T10:58:58.688Z,22.20
2022-08-17T11:01:34.624Z,22.20
2022-08-17T11:04:25.078Z,22.20
2022-08-17T11:07:04.375Z,22.20
2022-08-17T11:09:57.054Z,22.20
2022-08-17T11:12:47.806Z,22.20
2022-08-17T11:15:32.822Z,22.20
2022-08-17T11:18:26.087Z,22.20
2022-08-17T11:21:11.643Z,22.20
2022-08-17T11:24:03.379Z,22.20
2022-08-17T11:26:33.132Z,22.10
2022-08-17T11:29:05.353Z,22.10
2022-08-17T11:31:42.729Z,22.10
2022-08-17T11:34:21.601Z,22.10
2022-08-17T11:37:03.806Z,22.10
2022-08-17T11:40:05.034Z,22.10
2022-08-17T11:42:59.845Z,22.10
2022-08-17T11:45:58.837Z,22.10
2022-08-17T11:49:07.890Z,22.20
2022-08-17T11:52:15.198Z,22.10
2022-08-17T11:54:47.694Z,22.20
2022-08-17T11:57:26.755Z,22.20
2022-08-17T11:59:55.263Z,22.20
2022-08-17T12:02:31.535Z,22.20
2022-08-17T12:05:21.956Z,22.10
2022-08-17T12:08:04.090Z,22.20
2022-08-17T12:10:35.826Z,22.20
2022-08-17T12:13:10.934Z,22.20
2022-08-17T12:15:42.666Z,22.20
2022-08-17T12:18:22.909Z,22.20
2022-08-17T12:21:13.506Z,22.30
2022-08-17T12:24:13.956Z,22.30
2022-08-17T12:26:44.011Z,22.30
2022-08-17T12:29:35.901Z,22.40
2022-08-17T12:32:05.964Z,22.40
2022-08-17T12:34:39.892Z,22.40
2022-08-17T12:37:15.256Z,22.40
2022-08-17T12:40:18.569Z,22.30
2022-08-17T12:42:56.454Z,22.30
2022-08-17T12:45:35.010Z,22.30
2022-08-17T12:48:08.032Z,22.30
2022-08-17T12:50:41.996Z,22.30
2022-08-17T12:53:20.396Z,22.30
2022-08-17T12:55:47.931Z,22.30
2022-08-17T12:58:25.263Z,22.30
2022-08-17T13:01:01.074Z,22.30
2022-08-17T13:03:36.293Z,22.30
2022-08-17T13:06:06.703Z,22.30
2022-08-17T13:08:37.860Z,22.30
2022-08-17T13:11:16.302Z,22.30
2022-08-17T13:13:51.354Z,22.30
2022-08-17T13:16:21.427Z,22.30
2022-08-17T13:18:50.731Z,22.30
2022-08-17T13:21:28.209Z,22.30
2022-08-17T13:24:00.242Z,22.30
2022-08-17T13:26:30.939Z,22.40
2022-08-17T13:28:58.235Z,22.30
2022-08-17T13:31:28.193Z,22.30
2022-08-17T13:34:26.800Z,22.30
2022-08-17T13:37:35.051Z,22.40
2022-08-17T13:40:08.086Z,22.40
2022-08-17T13:42:51.799Z,22.30
2022-08-17T13:45:36.356Z,22.30
2022-08-17T13:48:11.145Z,22.30
2022-08-17T13:51:02.462Z,22.20
2022-08-17T13:53:41.738Z,22.30
2022-08-17T13:56:37.055Z,22.30
2022-08-17T13:59:05.665Z,22.20
2022-08-17T14:01:53.405Z,22.30
2022-08-17T14:04:28.105Z,22.30
2022-08-17T14:06:55.172Z,22.20
2022-08-17T14:09:27.068Z,22.20
2022-08-17T14:11:54.770Z,22.20
2022-08-17T14:14:23.377Z,22.10
2022-08-17T14:16:51.485Z,22.00
2022-08-17T14:19:18.362Z,22.10
2022-08-17T14:21:46.743Z,22.10
2022-08-17T14:24:22.855Z,22.10
2022-08-17T14:26:52.696Z,22.10
2022-08-17T14:29:21.061Z,22.20
2022-08-17T14:31:53.349Z,22.30
2022-08-17T14:34:23.113Z,22.20
2022-08-17T14:36:50.202Z,22.10
2022-08-17T14:39:17.787Z,22.10
2022-08-17T14:41:44.804Z,22.00
2022-08-17T14:44:12.668Z,22.00
2022-08-17T14:46:41.060Z,22.10
2022-08-17T14:49:09.580Z,22.10
2022-08-17T14:51:43.610Z,22.20
2022-08-17T14:54:33.413Z,22.20
2022-08-17T14:57:22.903Z,22.20
2022-08-17T14:59:47.429Z,22.20
2022-08-17T15:02:18.461Z,22.10
2022-08-17T15:04:48.332Z,22.20
2022-08-17T15:07:15.539Z,22.10
2022-08-17T15:09:44.104Z,22.10
2022-08-17T15:12:17.352Z,22.20
2022-08-17T15:14:44.166Z,22.20
2022-08-17T15:17:11.954Z,22.20
2022-08-17T15:19:38.789Z,22.20
2022-08-17T15:22:06.943Z,22.20
2022-08-17T15:24:33.828Z,22.10
2022-08-17T15:27:00.931Z,22.10
2022-08-17T15:29:28.197Z,22.20
2022-08-17T15:32:00.464Z,22.20
2022-08-17T15:34:27.595Z,22.30
2022-08-17T15:36:55.169Z,22.30
2022-08-17T15:39:22.534Z,22.30
2022-08-17T15:41:58.774Z,22.30
2022-08-17T15:44:32.442Z,22.20
2022-08-17T15:47:01.742Z,22.20
2022-08-17T15:49:28.923Z,22.20
2022-08-17T15:51:57.603Z,22.30
2022-08-17T15:54:24.424Z,22.20
2022-08-17T15:56:51.416Z,22.30
2022-08-17T15:59:18.419Z,22.30
2022-08-17T16:03:04.644Z,22.30
2022-08-17T16:04:32.609Z,22.20
2022-08-17T16:07:00.031Z,22.20
2022-08-17T16:09:27.586Z,22.30
2022-08-17T16:11:56.164Z,22.20
2022-08-17T16:14:33.895Z,22.20
2022-08-17T16:17:03.211Z,22.40
2022-08-17T16:19:30.513Z,22.50
2022-08-17T16:21:57.444Z,22.60
2022-08-17T16:24:24.364Z,22.60
2022-08-17T16:26:51.287Z,22.60
2022-08-17T16:29:18.129Z,22.70
2022-08-17T16:31:45.536Z,22.70
2022-08-17T16:34:17.602Z,22.70
2022-08-17T16:36:55.080Z,22.80
2022-08-17T16:39:25.190Z,22.90
2022-08-17T16:41:52.016Z,22.80
2022-08-17T16:44:20.733Z,22.80
2022-08-17T16:46:48.761Z,22.90
2022-08-17T16:49:35.315Z,23.00
2022-08-17T16:52:07.472Z,23.00
2022-08-17T16:54:35.754Z,23.00
2022-08-17T16:57:06.744Z,23.00
2022-08-17T16:59:40.914Z,23.00
2022-08-17T17:02:13.597Z,23.00
2022-08-17T17:04:48.451Z,23.00
2022-08-17T17:07:25.740Z,23.00
2022-08-17T17:09:55.611Z,23.00
2022-08-17T17:13:03.235Z,22.90
2022-08-17T17:15:11.749Z,22.90
2022-08-17T17:17:39.956Z,22.90
2022-08-17T17:20:10.267Z,22.90
2022-08-17T17:23:00.483Z,22.90
2022-08-17T17:25:40.676Z,22.90
2022-08-17T17:28:15.637Z,22.90
2022-08-17T17:31:06.233Z,22.90
2022-08-17T17:33:41.488Z,22.90
2022-08-17T17:36:35.439Z,22.80
2022-08-17T17:39:07.516Z,22.90
2022-08-17T17:41:45.269Z,22.90
2022-08-17T17:44:15.309Z,22.80
2022-08-17T17:46:51.113Z,22.80
2022-08-17T17:49:18.434Z,22.80
2022-08-17T17:52:14.226Z,22.80
2022-08-17T17:54:53.508Z,22.60
2022-08-17T17:58:07.116Z,22.70
2022-08-17T18:00:55.023Z,22.70
2022-08-17T18:03:26.011Z,22.70
2022-08-17T18:06:15.118Z,22.70
2022-08-17T18:08:58.970Z,22.60
2022-08-17T18:11:39.911Z,22.60
2022-08-17T18:14:31.159Z,22.70
2022-08-17T18:17:00.317Z,22.60
2022-08-17T18:19:29.539Z,22.50
2022-08-17T18:22:05.252Z,22.40
2022-08-17T18:24:39.496Z,22.50
2022-08-17T18:27:27.370Z,22.60
2022-08-17T18:29:56.493Z,22.60
2022-08-17T18:32:38.523Z,22.50
2022-08-17T18:35:11.325Z,22.50
2022-08-17T18:37:45.115Z,22.40
2022-08-17T18:40:18.540Z,22.40
2022-08-17T18:42:58.271Z,22.30
2022-08-17T18:45:41.105Z,22.30
2022-08-17T18:48:32.902Z,22.30
2022-08-17T18:51:06.659Z,22.30
2022-08-17T18:53:39.341Z,22.30
2022-08-17T18:56:16.822Z,22.30
2022-08-17T18:58:51.257Z,22.20
2022-08-17T19:01:20.630Z,22.20
2022-08-17T19:03:47.561Z,22.30
2022-08-17T19:06:23.979Z,22.20
2022-08-17T19:08:50.945Z,22.20
2022-08-17T19:11:25.172Z,22.10
2022-08-17T19:13:58.598Z,22.10
2022-08-17T19:16:32.662Z,22.00
2022-08-17T19:19:30.496Z,22.00
2022-08-17T19:22:29.042Z,22.00
2022-08-17T19:25:16.167Z,22.00
2022-08-17T19:27:57.723Z,22.00
2022-08-17T19:30:25.623Z,21.90
2022-08-17T19:32:53.203Z,21.90
2022-08-17T19:35:22.222Z,21.80
2022-08-17T19:38:06.429Z,21.80
2022-08-17T19:41:05.369Z,21.80
2022-08-17T19:43:57.192Z,21.70
2022-08-17T19:46:42.972Z,21.80
2022-08-17T19:49:34.459Z,21.80
2022-08-17T19:52:41.393Z,21.60
2022-08-17T19:55:24.893Z,21.60
2022-08-17T19:58:18.906Z,21.50
2022-08-17T20:00:50.495Z,21.50
2022-08-17T20:03:23.220Z,21.50
2022-08-17T20:06:11.948Z,21.50
2022-08-17T20:08:58.108Z,21.40
2022-08-17T20:11:44.699Z,21.30
2022-08-17T20:14:18.318Z,21.10
2022-08-17T20:16:45.980Z,21.10
2022-08-17T20:19:37.636Z,21.00
2022-08-17T20:22:36.894Z,21.00
2022-08-17T20:25:33.623Z,21.00
2022-08-17T20:28:26.171Z,21.00
2022-08-17T20:30:56.920Z,21.00
2022-08-17T20:33:26.200Z,21.00
2022-08-17T20:36:11.368Z,21.10
2022-08-17T20:38:51.614Z,21.00
2022-08-17T20:41:22.430Z,21.00
2022-08-17T20:43:59.526Z,20.90
2022-08-17T20:46:34.388Z,20.90
2022-08-17T20:49:19.926Z,20.80
2022-08-17T20:52:13.497Z,20.80
2022-08-17T20:54:57.398Z,20.70
2022-08-17T20:57:33.558Z,20.60
2022-08-17T21:00:33.418Z,20.60
2022-08-17T21:03:47.575Z,20.50
2022-08-17T21:06:18.354Z,20.30
2022-08-17T21:09:13.316Z,20.10
2022-08-17T21:12:02.266Z,20.20
2022-08-17T21:14:41.389Z,20.10
2022-08-17T21:17:15.036Z,20.00
2022-08-17T21:20:13.284Z,20.10
2022-08-17T21:22:52.407Z,20.20
2022-08-17T21:25:34.279Z,20.20
2022-08-17T21:28:33.883Z,20.20
2022-08-17T21:31:09.205Z,20.10
2022-08-17T21:33:38.698Z,20.10
2022-08-17T21:36:11.685Z,20.10
2022-08-17T21:38:48.759Z,20.00
2022-08-17T21:41:32.678Z,19.90
2022-08-17T21:44:31.324Z,19.80
2022-08-17T21:47:19.774Z,19.90
2022-08-17T21:49:46.578Z,19.90
2022-08-17T21:52:15.759Z,19.80
2022-08-17T21:54:49.587Z,19.60
2022-08-17T21:57:20.950Z,19.60
2022-08-17T21:59:57.206Z,19.60
2022-08-17T22:02:27.482Z,19.70
2022-08-17T22:05:00.157Z,19.60
2022-08-17T22:07:36.783Z,19.60
2022-08-17T22:10:07.027Z,19.50
2022-08-17T22:12:33.977Z,19.50
2022-08-17T22:15:05.909Z,19.50
2022-08-17T22:17:35.877Z,19.50
2022-08-17T22:20:18.305Z,19.50
2022-08-17T22:23:07.124Z,19.40
2022-08-17T22:25:37.586Z,19.20
2022-08-17T22:28:07.727Z,19.20
2022-08-17T22:30:41.883Z,19.30
2022-08-17T22:33:33.622Z,19.20
2022-08-17T22:36:13.537Z,19.20
2022-08-17T22:38:43.698Z,19.20
2022-08-17T22:41:22.747Z,19.20
2022-08-17T22:43:49.795Z,19.10
2022-08-17T22:46:20.719Z,19.00
2022-08-17T22:48:50.300Z,18.90
2022-08-17T22:51:23.563Z,18.90
2022-08-17T22:54:16.615Z,18.90
2022-08-17T22:57:21.856Z,18.80
2022-08-17T22:59:55.093Z,18.80
2022-08-17T23:02:21.982Z,18.90
2022-08-17T23:05:11.577Z,18.90
2022-08-17T23:07:39.507Z,18.90
2022-08-17T23:10:10.620Z,18.90
2022-08-17T23:12:38.926Z,18.90
2022-08-17T23:15:16.645Z,18.90
2022-08-17T23:17:44.478Z,18.90
2022-08-17T23:20:13.734Z,18.80
2022-08-17T23:22:51.736Z,18.80
2022-08-17T23:25:28.898Z,18.70
2022-08-17T23:27:57.641Z,18.70
2022-08-17T23:30:25.695Z,18.60
2022-08-17T23:32:56.776Z,18.60
2022-08-17T23:35:40.114Z,18.60
2022-08-17T23:38:09.932Z,18.50
2022-08-17T23:40:37.835Z,18.50
2022-08-17T23:43:17.461Z,18.60
2022-08-17T23:45:53.437Z,18.50
2022-08-17T23:48:35.244Z,18.30
2022-08-17T23:51:05.932Z,18.20
2022-08-17T23:53:34.756Z,18.30
2022-08-17T23:56:09.317Z,18.30
2022-08-17T23:58:42.249Z,18.30
